Latest Coastal Weather Observations for Taree Airport

IDN60701

Issued at 11:42 am EDT Saturday 28 February 2015 (issued every 10 minutes, with the page automatically refreshed every 10 minutes)

About coastal observations | Map of coastal stations | Coastal observations for NSW | Marine services | Other Formats
Station Details ID: 060141 Name: TAREE AIRPORT AWS Lat: -31.89 Lon: 152.51 Height: 8.0 m
Data from the previous 72 hours. | See also: Recent months at Taree Airport
Date/Time
EDT
Temp

°C
Wind Pressure Rain
since 9am
mm
Weather Cloud Vis
km
Sea
Height
m
Swell
Dir
 
Speed
knots
Gust
knots
hPa Trend Height
m
Period
s
Dir
28/11:30am 27.0 NE 5 8 1010.5 - 0.0 - Partly cloudy - - - - -
28/11:00am 25.6 ENE 6 9 1010.8 - 0.0 - - - - - - -
28/10:30am 24.9 SE 3 6 1010.8 - 0.0 - - - - - - -
28/10:00am 23.3 S 3 6 1010.9 - 0.0 - - - - - - -
28/09:30am 21.6 WSW 4 5 1011.0 - 0.0 - - - - - - -
28/09:00am 20.3 W 3 5 1010.9 - 1.0 Recent precip. - - - - - -
28/08:30am 19.3 NW 2 4 1010.8 - 1.0 - - - - - - -
28/08:00am 18.5 NNW 3 5 1010.8 - 0.8 - - - - - - -
28/07:30am 17.4 ESE 2 4 1010.8 - 0.8 - - - - - - -
28/07:00am 16.3 CALM 0 0 1010.3 - 0.8 - - - - - - -
28/06:30am 16.7 CALM 0 0 1009.9 - 0.8 - - - - - - -
28/06:00am 17.6 W 3 5 1009.6 - 0.8 - - - - - - -
28/05:30am 16.9 CALM 0 0 1009.2 - 0.8 - - - - - - -
28/05:00am 17.3 CALM 0 0 1009.0 - 0.8 - Partly cloudy - - - - -
28/04:56am 17.3 CALM 0 0 1008.9 - 0.8 - Partly cloudy - - - - -
28/04:39am 17.4 CALM 0 0 1009.0 - 0.8 - Partly cloudy - - - - -
28/04:30am 17.9 CALM 0 0 1008.8 - 0.8 - Partly cloudy - - - - -
28/04:00am 18.4 WSW 2 4 1008.9 - 0.8 - - - - - - -
28/03:30am 18.4 W 1 5 1008.9 - 0.8 - - - - - - -
28/03:00am 18.3 W 1 4 1009.3 - 0.8 - Mostly clear - - - - -
28/02:53am 17.5 CALM 0 0 1009.3 - 0.8 - Partly cloudy - - - - -
28/02:30am 17.4 CALM 0 0 1009.6 - 0.8 - Partly cloudy - - - - -
28/02:27am 17.4 CALM 0 0 1009.7 - 0.8 - Partly cloudy - - - - -
28/02:00am 17.8 CALM 0 0 1009.9 - 0.8 - - - - - - -
28/01:30am 18.6 CALM 0 0 1010.1 - 0.8 - - - - - - -
28/01:00am 19.2 CALM 0 0 1010.6 - 0.8 - - - - - - -
28/12:30am 18.1 CALM 0 0 1010.9 - 0.8 - - - - - - -
28/12:00am 19.2 CALM 0 0 1010.9 - 0.8 - - - - - - -
 
Date/Time
EDT
Temp

°C
Wind Pressure Rain
since 9am
mm
Weather Cloud Vis
km
Sea
Height
m
Swell
Dir
 
Speed
knots
Gust
knots
hPa Trend Height
m
Period
s
Dir
27/11:30pm 20.1 CALM 0 0 1011.0 - 0.8 - - - - - - -
27/11:00pm 20.5 CALM 0 0 1011.1 - 0.8 - - - - - - -
27/10:30pm 20.3 CALM 0 0 1011.0 - 0.8 - - - - - - -
27/10:00pm 20.1 CALM 0 0 1010.9 - 0.8 - - - - - - -
27/09:30pm 20.7 CALM 0 0 1010.7 - 0.8 - Partly cloudy - - - - -
27/09:00pm 21.1 CALM 0 0 1010.4 - 0.8 - - - - - - -
27/08:30pm 21.6 CALM 0 0 1010.0 - 0.8 - Partly cloudy - - - - -
27/08:00pm 22.4 ESE 3 4 1009.8 - 0.8 - - - - - - -
27/07:30pm 22.6 ESE 4 6 1009.4 - 0.8 - - - - - - -
27/07:00pm 23.3 E 6 7 1009.0 - 0.8 - - - - - - -
27/06:30pm 23.5 ESE 6 9 1009.0 - 0.8 - - - - - - -
27/06:00pm 25.0 ESE 7 10 1008.8 - 0.8 - Mostly cloudy - - - - -
27/05:30pm 24.8 ESE 8 10 1008.4 - 0.8 - Partly cloudy - - - - -
27/05:00pm 25.9 ESE 8 13 1008.1 - 0.8 - Partly cloudy - - - - -
27/04:30pm 25.5 ESE 9 14 1008.1 - 0.8 - - - - - - -
27/04:00pm 26.1 SE 11 14 1007.8 - 0.8 - - - - - - -
27/03:30pm 26.1 ESE 10 14 1008.0 - 0.8 - - - - - - -
27/03:00pm 26.6 SE 8 11 1008.1 - 0.8 - - - - - - -
27/02:30pm 26.9 ESE 8 14 1008.4 - 0.8 - Partly cloudy - - - - -
27/02:00pm 26.5 SE 7 10 1008.6 - 0.8 - Partly cloudy - - - - -
27/01:30pm 25.6 S 5 7 1008.9 - 0.8 - - - - - - -
27/01:00pm 24.7 W 3 5 1009.3 - 0.8 - - - - - - -
27/12:30pm 23.6 SW 1 4 1009.8 - 0.8 - - - - - - -
27/12:00pm 22.5 SSW 7 8 1010.2 - 0.8 - Partly cloudy - - - - -
27/11:47am 22.6 WSW 6 9 1010.3 - 0.8 - Partly cloudy - - - - -
27/11:30am 22.1 W 6 8 1010.2 - 0.8 - Partly cloudy - - - - -
27/11:00am 21.3 W 6 7 1010.5 - 0.8 - Partly cloudy - - - - -
27/10:30am 21.4 SW 6 7 1010.5 - 0.4 - Partly cloudy - - - - -
27/10:00am 21.4 CALM 0 4 1010.2 - 0.2 - Partly cloudy - - - - -
27/09:45am 21.4 CALM 0 0 1010.1 - 0.2 - Partly cloudy - - - - -
27/09:30am 21.3 CALM 0 0 1010.0 - 0.2 - Partly cloudy - - - - -
27/09:00am 20.8 SSE 4 7 1009.9 - 0.2 Rain Cloudy - - - - -
27/08:30am 20.4 WNW 4 5 1009.5 - 0.0 - Partly cloudy - - - - -
27/08:00am 19.4 NNW 4 5 1009.2 - 0.0 - Partly cloudy - - - - -
27/07:30am 18.0 N 1 4 1008.9 - 0.0 - - - - - - -
27/07:00am 18.4 CALM 0 0 1008.4 - 0.0 - - - - - - -
27/06:30am 18.9 CALM 0 4 1008.0 - 0.0 - Partly cloudy - - - - -
27/06:00am 18.0 CALM 0 0 1007.8 - 0.0 - Mostly clear - - - - -
27/05:30am 18.8 CALM 0 4 1007.6 - 0.0 - Partly cloudy - - - - -
27/05:00am 19.7 WSW 2 4 1007.3 - 0.0 - - - - - - -
27/04:30am 19.8 WSW 6 7 1007.0 - 0.0 - - - - - - -
27/04:00am 19.3 W 4 5 1006.7 - 0.0 - - - - - - -
27/03:30am 19.6 CALM 0 0 1006.5 - 0.0 - - - - - - -
27/03:00am 19.3 SE 3 4 1006.5 - 0.0 - - - - - - -
27/02:30am 19.5 CALM 0 0 1006.8 - 0.0 - - - - - - -
27/02:00am 19.6 N 4 4 1007.1 - 0.0 - Partly cloudy - - - - -
27/01:30am 20.2 N 5 6 1007.5 - 0.0 - Partly cloudy - - - - -
27/01:00am 20.3 NNW 5 7 1008.3 - 0.0 - Partly cloudy - - - - -
27/12:30am 20.2 N 4 5 1008.5 - 0.0 - Partly cloudy - - - - -
27/12:00am 20.9 NW 4 5 1008.7 - 0.0 - Cloudy - - - - -
 
Date/Time
EDT
Temp

°C
Wind Pressure Rain
since 9am
mm
Weather Cloud Vis
km
Sea
Height
m
Swell
Dir
 
Speed
knots
Gust
knots
hPa Trend Height
m
Period
s
Dir
26/11:30pm 21.0 CALM 0 3 1008.7 - 0.0 - Partly cloudy - - - - -
26/11:00pm 21.5 SSE 3 5 1008.4 - 0.0 - - - - - - -
26/10:30pm 20.8 ENE 1 5 1008.7 - 0.0 - - - - - - -
26/10:00pm 20.7 NNE 3 4 1008.5 - 0.0 - - - - - - -
26/09:30pm 21.4 CALM 0 0 1008.3 - 0.0 - - - - - - -
26/09:00pm 21.4 NNW 4 5 1008.1 - 0.0 - Cloudy - - - - -
26/08:30pm 22.0 NNW 5 7 1007.6 - 0.0 - - - - - - -
26/08:00pm 23.1 CALM 0 5 1007.1 - 0.0 - - - - - - -
26/07:30pm 23.3 N 5 7 1007.0 - 0.0 - Partly cloudy - - - - -
26/07:00pm 24.2 NNE 5 8 1007.3 - 0.0 - Cloudy - - - - -
26/06:30pm 24.3 NE 8 10 1006.4 - 0.0 - Partly cloudy - - - - -
26/06:00pm 24.7 NE 6 9 1006.2 - 0.0 - Partly cloudy - - - - -
26/05:30pm 25.4 ENE 9 13 1006.2 - 0.0 - Partly cloudy - - - - -
26/05:00pm 26.0 ENE 9 12 1006.4 - 0.0 - Partly cloudy - - - - -
26/04:30pm 26.1 E 9 11 1006.6 - 0.0 - - - - - - -
26/04:00pm 26.2 E 9 14 1006.6 - 0.0 - - - - - - -
26/03:30pm 26.4 E 11 15 1006.7 - 0.0 - - - - - - -
26/03:00pm 25.8 ESE 8 10 1007.0 - 0.0 - Partly cloudy - - - - -
26/02:30pm 25.7 E 9 14 1007.5 - 0.0 - - - - - - -
26/02:00pm 25.8 ESE 8 12 1008.0 - 0.0 - - - - - - -
26/01:30pm 25.9 ESE 9 14 1007.9 - 0.0 - Partly cloudy - - - - -
26/01:00pm 26.2 SE 9 11 1008.1 - 0.0 - Partly cloudy - - - - -
26/12:30pm 27.5 SE 6 9 1008.7 - 0.0 - Partly cloudy - - - - -
26/12:00pm 26.7 ESE 6 8 1009.2 - 0.0 - Cloudy - - - - -
26/11:30am 26.4 SSE 5 7 1009.6 - 0.0 - Partly cloudy - - - - -
26/11:00am 24.7 NE 3 5 1009.7 - 0.0 - Partly cloudy - - - - -
26/10:30am 25.0 NNE 1 4 1009.8 - 0.0 - Partly cloudy - - - - -
26/10:00am 24.3 SSW 2 5 1009.9 - 0.0 - - - - - - -
26/09:30am 22.8 SW 3 5 1009.8 - 0.0 - - - - - - -
26/09:00am 21.9 WSW 6 7 1010.0 - 0.8 - - - - - - -
26/08:30am 20.8 W 5 5 1009.9 - 0.8 - - - - - - -
26/08:00am 20.2 W 3 5 1009.9 - 0.8 - - - - - - -
26/07:30am 19.4 CALM 0 0 1009.8 - 0.8 - Partly cloudy - - - - -
26/07:00am 17.8 CALM 0 0 1009.6 - 0.8 - Partly cloudy - - - - -
26/06:30am 19.0 CALM 0 2 1009.5 - 0.8 - - - - - - -
26/06:00am 18.4 CALM 0 0 1009.3 - 0.8 Recent precip. Mostly cloudy - - - - -
26/05:30am 18.9 CALM 0 0 1009.2 - 0.6 - - - - - - -
26/05:00am 19.3 WNW 3 4 1009.1 - 0.6 - - - - - - -
26/04:30am 19.3 CALM 0 0 1009.2 - 0.6 - - - - - - -
26/04:00am 19.4 CALM 0 0 1009.4 - 0.6 - - - - - - -
26/03:30am 19.6 CALM 0 0 1009.7 - 0.6 - - - - - - -
26/03:00am 19.7 NW 5 5 1010.2 - 0.6 - Cloudy - - - - -
26/02:30am 19.6 CALM 0 0 1010.2 - 0.6 - - - - - - -
26/02:00am 20.0 CALM 0 0 1010.5 - 0.6 - - - - - - -
26/01:30am 19.6 CALM 0 0 1010.7 - 0.6 - - - - - - -
26/01:00am 20.4 SW 1 5 1011.2 - 0.6 - - - - - - -
26/12:30am 20.4 SW 5 6 1011.4 - 0.6 - - - - - - -
26/12:00am 20.3 W 3 5 1011.7 - 0.6 - - - - - - -
 
Date/Time
EDT
Temp

°C
Wind Pressure Rain
since 9am
mm
Weather Cloud Vis
km
Sea
Height
m
Swell
Dir
 
Speed
knots
Gust
knots
hPa Trend Height
m
Period
s
Dir
25/11:30pm 20.8 WSW 4 4 1012.0 - 0.6 - - - - - - -
25/11:00pm 20.5 CALM 0 0 1012.2 - 0.6 - - - - - - -
25/10:30pm 20.9 CALM 0 0 1012.3 - 0.6 - - - - - - -
25/10:00pm 21.5 CALM 0 0 1012.6 - 0.6 - - - - - - -
25/09:30pm 21.6 CALM 0 0 1012.8 - 0.6 - - - - - - -
25/09:00pm 21.9 CALM 0 2 1012.7 - 0.6 - - - - - - -
25/08:30pm 22.2 SSE 4 5 1012.6 - 0.6 - - - - - - -
25/08:00pm 22.6 SSE 3 4 1012.6 - 0.6 - - - - - - -
25/07:30pm 22.6 E 3 4 1012.2 - 0.6 - - - - - - -
25/07:00pm 23.1 ESE 5 6 1011.8 - 0.6 - - - - - - -
25/06:30pm 24.1 ESE 7 9 1011.9 - 0.6 - - - - - - -
25/06:00pm 24.8 ESE 8 10 1011.6 - 0.6 - - - - - - -
25/05:30pm 24.6 ESE 8 10 1011.3 - 0.6 - - - - - - -
25/05:00pm 24.8 SE 11 14 1011.5 - 0.6 - Partly cloudy - - - - -
25/04:30pm 25.3 SE 10 15 1011.7 - 0.6 - - - - - - -
25/04:00pm 25.8 SE 12 15 1012.0 - 0.6 - - - - - - -
25/03:30pm 26.4 SE 12 16 1012.1 - 0.6 - Partly cloudy - - - - -
25/03:00pm 25.7 SE 10 14 1012.2 - 0.6 - - - - - - -
25/02:30pm 25.7 SE 9 13 1012.7 - 0.6 - - - - - - -
25/02:00pm 25.2 SE 10 14 1013.0 - 0.6 - Partly cloudy - - - - -
25/01:30pm 26.3 SE 13 17 1013.2 - 0.2 - Partly cloudy - - - - -
25/01:00pm 26.6 SE 8 11 1013.4 - 0.2 - Partly cloudy - - - - -
25/12:30pm 27.3 SW 6 11 1013.7 - 0.2 - - - - - - -
25/12:00pm 26.7 WSW 6 9 1013.9 - 0.2 - Mostly clear - - - - -

Other Formats:

Comma delimited format used in spreadsheet applications
http://www.bom.gov.au/fwo/IDN60701/IDN60701.95784.axf

JavaScript Object Notation format (JSON) in row-major order
http://www.bom.gov.au/fwo/IDN60701/IDN60701.95784.json